createdAt,value
2022-12-15T00:01:44.634Z,0.10
2022-12-15T00:04:30.808Z,0.00
2022-12-15T00:07:16.431Z,0.10
2022-12-15T00:10:02.199Z,0.00
2022-12-15T00:12:47.793Z,1.10
2022-12-15T00:15:33.590Z,0.00
2022-12-15T00:18:26.486Z,0.00
2022-12-15T00:21:16.631Z,0.00
2022-12-15T00:24:02.516Z,0.00
2022-12-15T00:26:48.185Z,0.00
2022-12-15T00:29:34.075Z,0.00
2022-12-15T00:32:19.790Z,0.00
2022-12-15T00:35:05.706Z,0.00
2022-12-15T00:37:51.732Z,0.00
2022-12-15T00:40:19.006Z,0.00
2022-12-15T00:42:46.082Z,-0.10
2022-12-15T00:45:16.908Z,0.10
2022-12-15T00:47:44.199Z,0.00
2022-12-15T00:50:30.053Z,0.10
2022-12-15T00:53:15.728Z,0.00
2022-12-15T00:56:01.319Z,0.00
2022-12-15T00:58:47.360Z,0.00
2022-12-15T01:01:33.293Z,0.10
2022-12-15T01:04:19.309Z,0.00
2022-12-15T01:07:05.173Z,0.00
2022-12-15T01:09:50.831Z,0.00
2022-12-15T01:12:36.606Z,-0.10
2022-12-15T01:15:22.290Z,0.00
2022-12-15T01:18:07.908Z,0.00
2022-12-15T01:20:34.990Z,0.00
2022-12-15T01:23:02.133Z,0.10
2022-12-15T01:25:29.305Z,0.10
2022-12-15T01:27:56.541Z,-0.10
2022-12-15T01:30:24.895Z,0.00
2022-12-15T01:32:52.231Z,0.00
2022-12-15T01:35:20.094Z,0.00
2022-12-15T01:37:50.376Z,-0.10
2022-12-15T01:40:37.328Z,-0.10
2022-12-15T01:43:04.445Z,-0.20
2022-12-15T01:45:31.644Z,-0.10
2022-12-15T01:48:03.461Z,-0.10
2022-12-15T01:50:31.583Z,-0.10
2022-12-15T01:52:58.735Z,0.00
2022-12-15T01:55:26.793Z,0.00
2022-12-15T01:57:55.551Z,0.00
2022-12-15T02:00:22.960Z,-0.10
2022-12-15T02:02:50.379Z,-0.10
2022-12-15T02:05:17.565Z,0.00
2022-12-15T02:07:44.846Z,0.00
2022-12-15T02:10:12.036Z,0.00
2022-12-15T02:12:51.011Z,-0.10
2022-12-15T02:15:20.140Z,-0.10
2022-12-15T02:18:28.505Z,-0.10
2022-12-15T02:21:14.872Z,-0.10
2022-12-15T02:23:42.134Z,-0.10
2022-12-15T02:26:24.216Z,-0.10
2022-12-15T02:29:02.912Z,0.00
2022-12-15T02:31:50.494Z,0.00
2022-12-15T02:34:39.103Z,-0.10
2022-12-15T02:37:15.307Z,-0.10
2022-12-15T02:39:42.596Z,-0.10
2022-12-15T02:42:12.817Z,-0.10
2022-12-15T02:44:44.267Z,-0.10
2022-12-15T02:47:28.338Z,-0.10
2022-12-15T02:50:22.561Z,-0.20
2022-12-15T02:53:11.039Z,-0.20
2022-12-15T02:56:00.293Z,-0.10
2022-12-15T02:58:39.252Z,-0.20
2022-12-15T03:01:09.938Z,-0.20
2022-12-15T03:03:37.562Z,-0.10
2022-12-15T03:06:05.058Z,-0.10
2022-12-15T03:08:32.465Z,-0.10
2022-12-15T03:10:59.614Z,-0.10
2022-12-15T03:13:26.819Z,-0.10
2022-12-15T03:15:54.661Z,-0.10
2022-12-15T03:18:21.905Z,-0.10
2022-12-15T03:20:49.132Z,-0.10
2022-12-15T03:23:16.530Z,-0.20
2022-12-15T03:25:46.388Z,-0.20
2022-12-15T03:28:17.302Z,-0.20
2022-12-15T03:30:44.973Z,-0.30
2022-12-15T03:33:12.282Z,-0.30
2022-12-15T03:35:39.671Z,-0.20
2022-12-15T03:38:07.189Z,-0.30
2022-12-15T03:40:34.419Z,-0.30
2022-12-15T03:43:01.727Z,-0.30
2022-12-15T03:45:29.052Z,-0.20
2022-12-15T03:47:56.776Z,-0.20
2022-12-15T03:50:26.142Z,-0.20
2022-12-15T03:52:57.652Z,-0.20
2022-12-15T03:55:24.806Z,-0.20
2022-12-15T03:57:52.141Z,-0.30
2022-12-15T04:00:19.784Z,-0.30
2022-12-15T04:02:47.503Z,-0.30
2022-12-15T04:05:28.635Z,-0.20
2022-12-15T04:07:56.650Z,-0.20
2022-12-15T04:10:27.358Z,-0.20
2022-12-15T04:13:09.508Z,-0.30
2022-12-15T04:15:37.347Z,-0.30
2022-12-15T04:18:07.422Z,-0.30
2022-12-15T04:20:34.613Z,-0.20
2022-12-15T04:23:01.849Z,-0.20
2022-12-15T04:25:47.530Z,-0.20
2022-12-15T04:28:33.283Z,-0.30
2022-12-15T04:31:37.406Z,-0.30
2022-12-15T04:34:26.926Z,-0.40
2022-12-15T04:37:12.769Z,-0.20
2022-12-15T04:40:00.046Z,-0.30
2022-12-15T04:42:45.748Z,-0.20
2022-12-15T04:45:31.543Z,-0.20
2022-12-15T04:48:18.007Z,-0.20
2022-12-15T04:51:03.851Z,-0.30
2022-12-15T04:53:49.486Z,-0.30
2022-12-15T04:56:35.294Z,-0.30
2022-12-15T04:59:20.998Z,-0.30
2022-12-15T05:02:06.744Z,-0.30
2022-12-15T05:04:52.509Z,-0.30
2022-12-15T05:07:38.561Z,-0.30
2022-12-15T05:10:24.890Z,-0.30
2022-12-15T05:13:10.570Z,-0.30
2022-12-15T05:15:56.324Z,-0.30
2022-12-15T05:18:42.062Z,-0.30
2022-12-15T05:21:28.146Z,-0.30
2022-12-15T05:24:13.872Z,-0.20
2022-12-15T05:26:59.639Z,-0.20
2022-12-15T05:29:45.300Z,-0.20
2022-12-15T05:32:13.377Z,-0.30
2022-12-15T05:34:40.689Z,-0.20
2022-12-15T05:37:07.945Z,-0.20
2022-12-15T05:39:35.206Z,-0.20
2022-12-15T05:42:02.550Z,-0.20
2022-12-15T05:44:29.717Z,-0.20
2022-12-15T05:46:57.064Z,-0.10
2022-12-15T05:49:24.449Z,-0.10
2022-12-15T05:51:51.790Z,-0.10
2022-12-15T05:54:19.513Z,-0.10
2022-12-15T05:56:46.879Z,-0.20
2022-12-15T05:59:17.776Z,-0.10
2022-12-15T06:01:45.133Z,-0.10
2022-12-15T06:04:15.188Z,-0.20
2022-12-15T06:06:42.445Z,-0.10
2022-12-15T06:09:09.813Z,-0.10
2022-12-15T06:11:37.618Z,-0.10
2022-12-15T06:14:05.110Z,-0.10
2022-12-15T06:16:32.847Z,-0.20
2022-12-15T06:19:01.067Z,-0.40
2022-12-15T06:21:30.774Z,-0.10
2022-12-15T06:23:57.973Z,-0.10
2022-12-15T06:26:33.889Z,-0.10
2022-12-15T06:29:02.930Z,-0.10
2022-12-15T06:31:30.634Z,-0.10
2022-12-15T06:34:02.141Z,-0.10
2022-12-15T06:36:31.023Z,0.00
2022-12-15T06:39:02.178Z,0.00
2022-12-15T06:41:32.040Z,0.00
2022-12-15T06:43:59.678Z,0.00
2022-12-15T06:46:28.229Z,0.00
2022-12-15T06:48:55.447Z,0.00
2022-12-15T06:51:22.813Z,-0.10
2022-12-15T06:53:51.224Z,-0.10
2022-12-15T06:56:34.611Z,-0.10
2022-12-15T06:59:06.150Z,-0.10
2022-12-15T07:01:33.524Z,-0.10
2022-12-15T07:04:02.983Z,-0.10
2022-12-15T07:06:36.424Z,-0.10
2022-12-15T07:09:04.524Z,-0.10
2022-12-15T07:11:31.676Z,-0.20
2022-12-15T07:13:58.947Z,-0.20
2022-12-15T07:16:26.825Z,-0.10
2022-12-15T07:18:53.972Z,0.00
2022-12-15T07:21:21.348Z,-0.10
2022-12-15T07:23:56.943Z,-0.10
2022-12-15T07:26:25.109Z,-0.30
2022-12-15T07:28:53.788Z,-0.40
2022-12-15T07:31:21.491Z,-0.50
2022-12-15T07:33:48.913Z,-0.50
2022-12-15T07:36:16.149Z,-0.20
2022-12-15T07:38:49.997Z,-0.60
2022-12-15T07:41:18.166Z,-0.50
2022-12-15T07:43:46.678Z,-0.40
2022-12-15T07:46:14.299Z,-0.30
2022-12-15T07:48:41.359Z,-0.20
2022-12-15T07:51:15.151Z,-0.30
2022-12-15T07:53:44.857Z,-0.30
2022-12-15T07:56:12.071Z,-0.40
2022-12-15T07:58:39.575Z,-0.40
2022-12-15T08:01:07.776Z,-0.20
2022-12-15T08:03:36.214Z,-0.20
2022-12-15T08:06:08.266Z,-0.30
2022-12-15T08:08:36.285Z,-0.30
2022-12-15T08:11:07.614Z,-0.40
2022-12-15T08:16:22.350Z,-0.30
2022-12-15T08:18:49.648Z,-0.20
2022-12-15T08:21:17.638Z,-0.10
2022-12-15T08:23:44.673Z,-0.10
2022-12-15T08:26:13.640Z,0.00
2022-12-15T08:28:41.080Z,0.10
2022-12-15T08:31:09.894Z,0.10
2022-12-15T08:33:37.225Z,0.20
2022-12-15T08:36:06.505Z,0.10
2022-12-15T08:38:33.747Z,0.20
2022-12-15T08:41:11.463Z,0.10
2022-12-15T08:43:43.995Z,0.30
2022-12-15T08:46:15.235Z,0.30
2022-12-15T08:48:42.431Z,0.20
2022-12-15T08:51:09.985Z,0.20
2022-12-15T08:53:37.107Z,0.20
2022-12-15T08:56:08.711Z,0.10
2022-12-15T08:58:36.064Z,-0.10
2022-12-15T09:01:12.954Z,0.00
2022-12-15T09:03:43.087Z,0.20
2022-12-15T09:06:24.335Z,0.30
2022-12-15T09:08:55.043Z,0.30
2022-12-15T09:11:22.425Z,0.30
2022-12-15T09:13:49.398Z,0.20
2022-12-15T09:16:17.124Z,0.30
2022-12-15T09:18:49.171Z,0.40
2022-12-15T09:21:16.717Z,0.40
2022-12-15T09:23:43.970Z,0.70
2022-12-15T09:26:13.065Z,0.80
2022-12-15T09:28:40.379Z,0.80
2022-12-15T09:31:12.520Z,0.80
2022-12-15T09:33:40.001Z,0.80
2022-12-15T09:36:08.086Z,0.80
2022-12-15T09:38:36.012Z,0.80
2022-12-15T09:41:09.665Z,0.70
2022-12-15T09:43:46.621Z,0.70
2022-12-15T09:46:28.388Z,0.70
2022-12-15T09:48:56.257Z,0.80
2022-12-15T09:51:45.539Z,0.80
2022-12-15T09:54:12.483Z,1.00
2022-12-15T09:56:49.716Z,1.10
2022-12-15T09:59:29.380Z,1.10
2022-12-15T10:02:29.449Z,1.30
2022-12-15T10:05:16.730Z,1.30
2022-12-15T10:07:46.350Z,1.20
2022-12-15T10:10:18.071Z,1.00
2022-12-15T10:12:54.815Z,0.80
2022-12-15T10:15:26.631Z,0.70
2022-12-15T10:18:21.786Z,0.70
2022-12-15T10:20:48.889Z,0.90
2022-12-15T10:23:18.067Z,1.00
2022-12-15T10:25:56.491Z,0.90
2022-12-15T10:28:33.800Z,1.00
2022-12-15T10:31:03.607Z,1.10
2022-12-15T10:33:47.074Z,0.90
2022-12-15T10:36:16.547Z,0.90
2022-12-15T10:38:50.396Z,0.90
2022-12-15T10:41:21.662Z,1.00
2022-12-15T10:43:50.437Z,0.90
2022-12-15T10:46:19.943Z,1.00
2022-12-15T10:48:49.219Z,1.10
2022-12-15T10:51:31.655Z,1.10
2022-12-15T10:54:11.271Z,0.90
2022-12-15T10:56:57.764Z,0.90
2022-12-15T10:59:34.720Z,0.70
2022-12-15T11:02:24.080Z,0.90
2022-12-15T11:05:17.307Z,0.80
2022-12-15T11:07:48.033Z,0.70
2022-12-15T11:10:16.365Z,0.70
2022-12-15T11:12:58.126Z,0.80
2022-12-15T11:15:31.462Z,0.70
2022-12-15T11:18:05.965Z,0.80
2022-12-15T11:20:38.947Z,0.80
2022-12-15T11:23:19.488Z,0.90
2022-12-15T11:26:06.794Z,1.10
2022-12-15T11:28:46.844Z,1.20
2022-12-15T11:31:18.112Z,1.40
2022-12-15T11:33:45.062Z,1.40
2022-12-15T11:36:20.062Z,1.60
2022-12-15T11:38:50.069Z,1.60
2022-12-15T11:41:39.940Z,1.50
2022-12-15T11:44:24.753Z,1.40
2022-12-15T11:47:13.456Z,1.30
2022-12-15T11:49:59.363Z,1.40
2022-12-15T11:52:34.868Z,1.40
2022-12-15T11:55:15.401Z,1.40
2022-12-15T11:57:54.501Z,1.40
2022-12-15T12:00:22.233Z,1.40
2022-12-15T12:02:49.396Z,1.40
2022-12-15T12:05:44.408Z,1.40
2022-12-15T12:08:11.677Z,1.40
2022-12-15T12:10:59.947Z,1.30
2022-12-15T12:13:57.656Z,1.30
2022-12-15T12:16:52.523Z,1.40
2022-12-15T12:19:31.837Z,1.60
2022-12-15T12:22:21.322Z,1.60
2022-12-15T12:25:00.614Z,1.70
2022-12-15T12:28:00.434Z,1.60
2022-12-15T12:30:39.236Z,1.70
2022-12-15T12:33:28.188Z,1.50
2022-12-15T12:35:59.024Z,1.50
2022-12-15T12:38:39.136Z,1.60
2022-12-15T12:41:10.743Z,1.70
2022-12-15T12:43:50.393Z,1.70
2022-12-15T12:46:43.379Z,1.70
2022-12-15T12:49:34.963Z,1.60
2022-12-15T12:52:03.598Z,1.60
2022-12-15T12:54:39.968Z,1.60
2022-12-15T12:57:13.137Z,1.70
2022-12-15T13:00:00.970Z,1.70
2022-12-15T13:02:29.603Z,1.60
2022-12-15T13:05:22.405Z,1.60
2022-12-15T13:08:05.264Z,1.60
2022-12-15T13:10:33.228Z,1.60
2022-12-15T13:13:19.084Z,1.60
2022-12-15T13:15:50.913Z,1.60
2022-12-15T13:18:25.057Z,1.60
2022-12-15T13:20:56.113Z,1.60
2022-12-15T13:23:26.183Z,1.40
2022-12-15T13:25:56.616Z,1.50
2022-12-15T13:28:43.179Z,1.50
2022-12-15T13:31:20.926Z,1.50
2022-12-15T13:33:51.397Z,1.40
2022-12-15T13:36:37.501Z,1.20
2022-12-15T13:39:19.414Z,1.30
2022-12-15T13:42:31.645Z,1.30
2022-12-15T13:44:45.563Z,1.20
2022-12-15T13:47:16.771Z,1.20
2022-12-15T13:50:01.764Z,1.20
2022-12-15T13:55:40.093Z,1.20
2022-12-15T13:58:17.650Z,1.20
2022-12-15T14:00:55.316Z,1.20
2022-12-15T14:03:22.560Z,1.10
2022-12-15T14:05:54.152Z,1.10
2022-12-15T14:08:22.099Z,1.10
2022-12-15T14:10:53.823Z,1.20
2022-12-15T14:13:34.655Z,1.20
2022-12-15T14:16:15.578Z,1.20
2022-12-15T14:18:43.367Z,1.20
2022-12-15T14:21:24.589Z,1.20
2022-12-15T14:24:28.333Z,1.20
2022-12-15T14:26:38.860Z,1.10
2022-12-15T14:29:06.453Z,1.10
2022-12-15T14:31:33.774Z,1.00
2022-12-15T14:34:08.197Z,1.00
2022-12-15T14:36:35.706Z,1.00
2022-12-15T14:39:05.296Z,1.10
2022-12-15T14:41:35.024Z,1.10
2022-12-15T14:44:36.086Z,1.00
2022-12-15T14:47:01.768Z,1.00
2022-12-15T14:49:31.465Z,1.00
2022-12-15T14:52:02.768Z,1.00
2022-12-15T14:54:35.989Z,1.00
2022-12-15T14:57:09.705Z,1.00
2022-12-15T14:59:40.781Z,1.00
2022-12-15T15:02:12.880Z,0.90
2022-12-15T15:04:40.585Z,0.90
2022-12-15T15:07:16.581Z,0.80
2022-12-15T15:09:45.068Z,0.80
2022-12-15T15:12:19.669Z,0.80
2022-12-15T15:14:52.185Z,0.80
2022-12-15T15:17:38.126Z,0.80
2022-12-15T15:20:08.158Z,0.70
2022-12-15T15:22:42.918Z,0.50
2022-12-15T15:25:39.285Z,0.40
2022-12-15T15:28:19.059Z,0.40
2022-12-15T15:30:57.689Z,0.40
2022-12-15T15:33:25.346Z,0.50
2022-12-15T15:35:54.189Z,0.50
2022-12-15T15:38:24.922Z,0.50
2022-12-15T15:40:56.740Z,0.50
2022-12-15T15:43:25.410Z,0.50
2022-12-15T15:46:13.408Z,0.50
2022-12-15T15:48:51.066Z,0.50
2022-12-15T15:51:18.538Z,0.50
2022-12-15T15:53:45.748Z,0.70
2022-12-15T15:56:14.326Z,0.60
2022-12-15T15:58:43.151Z,0.60
2022-12-15T16:01:13.286Z,0.70
2022-12-15T16:03:41.328Z,0.60
2022-12-15T16:06:18.945Z,0.60
2022-12-15T16:08:47.171Z,0.50
2022-12-15T16:11:14.424Z,0.50
2022-12-15T16:13:41.979Z,0.60
2022-12-15T16:16:30.975Z,0.60
2022-12-15T16:18:58.616Z,0.50
2022-12-15T16:21:27.217Z,0.00
2022-12-15T16:23:54.884Z,0.50
2022-12-15T16:26:27.971Z,0.40
2022-12-15T16:28:55.303Z,0.40
2022-12-15T16:31:41.908Z,0.40
2022-12-15T16:34:09.451Z,0.40
2022-12-15T16:36:36.685Z,0.40
2022-12-15T16:39:04.824Z,0.30
2022-12-15T16:41:32.218Z,0.20
2022-12-15T16:43:59.328Z,0.20
2022-12-15T16:46:26.504Z,0.20
2022-12-15T16:48:53.854Z,0.20
2022-12-15T16:51:37.328Z,0.10
2022-12-15T16:54:04.943Z,0.10
2022-12-15T16:56:32.051Z,0.10
2022-12-15T16:59:30.995Z,0.10
2022-12-15T17:01:46.399Z,0.00
2022-12-15T17:04:14.047Z,0.10
2022-12-15T17:06:41.320Z,0.00
2022-12-15T17:09:09.217Z,0.00
2022-12-15T17:11:36.423Z,-0.10
2022-12-15T17:14:03.528Z,-0.10
2022-12-15T17:16:30.810Z,-0.10
2022-12-15T17:18:58.137Z,0.00
2022-12-15T17:21:29.838Z,0.10
2022-12-15T17:24:04.038Z,0.00
2022-12-15T17:26:32.384Z,0.00
2022-12-15T17:29:13.326Z,0.10
2022-12-15T17:31:40.654Z,0.10
2022-12-15T17:34:29.105Z,0.10
2022-12-15T17:37:00.619Z,0.10
2022-12-15T17:39:28.011Z,0.10
2022-12-15T17:42:00.366Z,0.10
2022-12-15T17:44:38.585Z,0.00
2022-12-15T17:47:07.357Z,0.00
2022-12-15T17:49:37.796Z,0.00
2022-12-15T17:52:28.101Z,0.10
2022-12-15T17:54:55.214Z,0.10
2022-12-15T17:57:22.227Z,0.00
2022-12-15T17:59:49.276Z,0.00
2022-12-15T18:02:16.508Z,0.00
2022-12-15T18:04:43.747Z,0.10
2022-12-15T18:07:37.169Z,0.00
2022-12-15T18:10:04.450Z,-0.10
2022-12-15T18:12:31.563Z,-0.10
2022-12-15T18:14:58.947Z,-0.20
2022-12-15T18:17:26.061Z,-0.20
2022-12-15T18:19:53.252Z,-0.20
2022-12-15T18:22:22.924Z,-0.20
2022-12-15T18:24:51.057Z,-0.20
2022-12-15T18:27:26.403Z,-0.10
2022-12-15T18:29:53.598Z,-0.20
2022-12-15T18:32:22.580Z,-0.40
2022-12-15T18:34:49.906Z,-0.20
2022-12-15T18:37:20.690Z,-0.30
2022-12-15T18:39:47.934Z,-0.30
2022-12-15T18:42:16.106Z,-0.20
2022-12-15T18:44:47.822Z,-0.10
2022-12-15T18:47:22.826Z,-0.10
2022-12-15T18:49:50.102Z,-0.20
2022-12-15T18:52:21.696Z,-0.30
2022-12-15T18:54:53.307Z,-0.40
2022-12-15T18:57:34.375Z,-0.30
2022-12-15T19:00:11.534Z,-0.30
2022-12-15T19:02:38.763Z,-0.20
2022-12-15T19:05:06.424Z,-0.30
2022-12-15T19:07:34.478Z,-0.30
2022-12-15T19:10:01.483Z,-0.30
2022-12-15T19:12:28.497Z,-0.40
2022-12-15T19:14:55.739Z,-0.40
2022-12-15T19:17:42.105Z,-0.40
2022-12-15T19:20:37.901Z,-0.30
2022-12-15T19:23:05.375Z,-0.40
2022-12-15T19:25:32.519Z,-0.40
2022-12-15T19:28:00.071Z,-0.30
2022-12-15T19:30:35.904Z,-0.30
2022-12-15T19:33:07.582Z,-0.20
2022-12-15T19:35:34.792Z,-0.30
2022-12-15T19:38:02.253Z,-0.30
2022-12-15T19:40:31.073Z,-0.20
2022-12-15T19:42:59.031Z,-0.10
2022-12-15T19:45:28.975Z,-0.10
2022-12-15T19:47:56.526Z,-0.10
2022-12-15T19:50:25.598Z,-0.10
2022-12-15T19:52:57.434Z,-0.10
2022-12-15T19:55:30.401Z,0.00
2022-12-15T19:57:57.613Z,0.00
2022-12-15T20:00:27.592Z,0.00
2022-12-15T20:02:55.237Z,0.00
2022-12-15T20:05:23.981Z,0.10
2022-12-15T20:07:53.021Z,0.10
2022-12-15T20:10:31.351Z,0.00
2022-12-15T20:13:00.613Z,0.10
2022-12-15T20:15:27.927Z,0.00
2022-12-15T20:17:57.523Z,0.10
2022-12-15T20:20:26.500Z,0.10
2022-12-15T20:22:55.111Z,0.20
2022-12-15T20:25:29.062Z,0.30
2022-12-15T20:27:56.608Z,0.20
2022-12-15T20:30:27.052Z,0.00
2022-12-15T20:32:54.305Z,0.00
2022-12-15T20:35:22.133Z,0.10
2022-12-15T20:37:49.430Z,0.10
2022-12-15T20:40:26.419Z,0.20
2022-12-15T20:42:53.945Z,0.30
2022-12-15T20:45:22.813Z,0.30
2022-12-15T20:47:51.038Z,0.20
2022-12-15T20:50:36.449Z,0.20
2022-12-15T20:53:04.198Z,0.10
2022-12-15T20:55:31.892Z,0.20
2022-12-15T20:57:59.080Z,0.10
2022-12-15T21:00:26.522Z,0.10
2022-12-15T21:02:55.051Z,0.10
2022-12-15T21:05:24.162Z,0.10
2022-12-15T21:07:52.034Z,0.20
2022-12-15T21:10:20.467Z,0.10
2022-12-15T21:12:48.963Z,0.10
2022-12-15T21:15:17.912Z,0.20
2022-12-15T21:17:45.562Z,0.20
2022-12-15T21:20:13.232Z,0.30
2022-12-15T21:22:40.501Z,0.20
2022-12-15T21:25:16.776Z,0.20
2022-12-15T21:27:43.889Z,0.10
2022-12-15T21:30:20.684Z,0.10
2022-12-15T21:32:48.944Z,0.10
2022-12-15T21:35:17.398Z,0.10
2022-12-15T21:37:46.519Z,0.10
2022-12-15T21:40:18.525Z,0.10
2022-12-15T21:42:45.723Z,0.10
2022-12-15T21:45:17.952Z,0.10
2022-12-15T21:48:03.839Z,0.00
2022-12-15T21:50:31.113Z,0.00
2022-12-15T21:52:58.386Z,0.00
2022-12-15T21:55:27.331Z,0.10
2022-12-15T21:57:54.985Z,0.10
2022-12-15T22:00:22.726Z,0.20
2022-12-15T22:02:50.786Z,0.20
2022-12-15T22:05:22.144Z,0.20
2022-12-15T22:07:49.920Z,0.20
2022-12-15T22:10:18.928Z,0.20
2022-12-15T22:12:52.390Z,0.20
2022-12-15T22:15:25.149Z,0.20
2022-12-15T22:17:52.458Z,0.30
2022-12-15T22:20:23.935Z,0.30
2022-12-15T22:22:51.460Z,0.30
2022-12-15T22:25:26.075Z,0.30
2022-12-15T22:27:54.986Z,0.30
2022-12-15T22:30:25.998Z,0.40
2022-12-15T22:32:53.804Z,0.40
2022-12-15T22:35:22.856Z,0.40
2022-12-15T22:37:53.800Z,0.40
2022-12-15T22:40:21.699Z,0.40
2022-12-15T22:42:54.965Z,0.40
2022-12-15T22:45:24.215Z,0.40
2022-12-15T22:47:51.793Z,0.50
2022-12-15T22:50:23.989Z,0.40
2022-12-15T22:52:51.372Z,0.40
2022-12-15T22:55:19.934Z,0.50
2022-12-15T22:57:57.354Z,0.50
2022-12-15T23:00:24.547Z,0.50
2022-12-15T23:02:51.855Z,0.40
2022-12-15T23:05:19.845Z,0.40
2022-12-15T23:07:47.002Z,0.40
2022-12-15T23:10:33.749Z,0.20
2022-12-15T23:13:00.845Z,0.10
2022-12-15T23:15:46.649Z,0.10
2022-12-15T23:18:13.890Z,0.10
2022-12-15T23:20:41.252Z,0.00
2022-12-15T23:23:08.633Z,0.00
2022-12-15T23:25:35.861Z,0.10
2022-12-15T23:28:03.392Z,0.10
2022-12-15T23:30:30.319Z,0.20
2022-12-15T23:32:57.642Z,0.10
2022-12-15T23:35:24.571Z,0.10
2022-12-15T23:37:51.491Z,0.10
2022-12-15T23:40:22.265Z,0.10
2022-12-15T23:42:50.000Z,0.10
2022-12-15T23:45:18.324Z,0.10
2022-12-15T23:47:45.379Z,0.10
2022-12-15T23:50:12.436Z,0.20
2022-12-15T23:52:39.643Z,0.30
2022-12-15T23:55:10.295Z,0.30
2022-12-15T23:57:38.322Z,0.30
